Time;durP1;ratioP1;P1;durP2;ratioP2;P2;SDS_P1;SDS_P2;PMS_P1;PMS_P2;Temp;Humidity;BMP_temperature;BMP_pressure;BME280_temperature;BME280_humidity;BME280_pressure;Samples;Min_cycle;Max_cycle;Signal;HPM_P1;HPM_P2
2021/04/19 00:00:39;;;;;;;15.65;12.55;;;8.70;99.90;;;;;;5031837;28;20033;-73
2021/04/19 00:03:05;;;;;;;13.20;11.63;;;8.60;99.90;;;;;;5033143;28;20021;-72
2021/04/19 00:05:31;;;;;;;14.93;12.05;;;8.70;99.90;;;;;;5028451;28;20029;-71
2021/04/19 00:07:56;;;;;;;17.05;11.43;;;8.80;99.90;;;;;;5024832;28;20013;-71
2021/04/19 00:10:23;;;;;;;16.08;11.38;;;8.80;99.90;;;;;;5018483;28;20026;-74
2021/04/19 00:12:52;;;;;;;13.45;12.10;;;8.90;99.90;;;;;;5028588;28;20049;-73
2021/04/19 00:15:19;;;;;;;21.48;13.13;;;8.90;99.90;;;;;;5035410;28;20048;-73
2021/04/19 00:17:45;;;;;;;14.93;11.93;;;8.80;99.90;;;;;;5028335;28;20037;-73
2021/04/19 00:20:13;;;;;;;14.60;11.93;;;8.80;99.90;;;;;;5036123;28;20115;-71
2021/04/19 00:22:39;;;;;;;17.60;13.00;;;8.50;99.90;;;;;;5034589;28;20037;-72
2021/04/19 00:25:05;;;;;;;14.85;13.05;;;8.40;99.90;;;;;;5040556;28;20021;-71
2021/04/19 00:27:31;;;;;;;15.75;12.43;;;8.30;99.90;;;;;;5049452;28;20053;-74
2021/04/19 00:29:57;;;;;;;16.80;13.50;;;8.20;99.90;;;;;;5047630;28;20478;-72
2021/04/19 00:32:23;;;;;;;17.10;12.35;;;8.20;99.90;;;;;;5035994;28;20025;-73
2021/04/19 00:34:49;;;;;;;14.98;13.02;;;8.30;99.90;;;;;;5032101;28;20067;-73
2021/04/19 00:37:15;;;;;;;13.30;11.52;;;8.30;99.90;;;;;;5039016;28;20116;-74
2021/04/19 00:39:41;;;;;;;17.92;13.93;;;8.30;99.90;;;;;;5034677;28;20025;-73
2021/04/19 00:42:07;;;;;;;19.10;14.15;;;8.30;99.90;;;;;;5034446;28;20017;-71
2021/04/19 00:44:33;;;;;;;22.60;13.55;;;8.20;99.90;;;;;;5026597;28;20018;-71
2021/04/19 00:46:59;;;;;;;17.13;12.95;;;8.10;99.90;;;;;;5035532;28;20484;-73
2021/04/19 00:49:26;;;;;;;14.20;11.80;;;8.20;99.90;;;;;;5027424;28;20572;-72
2021/04/19 00:51:53;;;;;;;16.95;14.00;;;8.20;99.90;;;;;;5035846;28;20032;-73
2021/04/19 00:54:19;;;;;;;19.63;13.07;;;8.30;99.90;;;;;;5034482;28;20554;-72
2021/04/19 00:56:47;;;;;;;14.80;13.10;;;8.20;99.90;;;;;;5035494;28;20109;-72
2021/04/19 00:59:13;;;;;;;17.35;12.48;;;8.30;99.90;;;;;;5035102;28;20053;-74
2021/04/19 01:01:39;;;;;;;14.70;12.20;;;8.30;99.90;;;;;;5024997;28;20105;-75
2021/04/19 01:04:04;;;;;;;16.10;12.88;;;8.30;99.90;;;;;;5035212;28;20091;-72
2021/04/19 01:06:30;;;;;;;15.55;12.57;;;8.30;99.90;;;;;;5031305;28;20061;-71
2021/04/19 01:08:55;;;;;;;15.63;13.10;;;8.10;99.90;;;;;;5022745;28;20551;-71
2021/04/19 01:11:21;;;;;;;18.35;12.73;;;8.00;99.90;;;;;;5028740;28;20033;-72
2021/04/19 01:13:47;;;;;;;19.45;13.63;;;8.10;99.90;;;;;;5032061;28;20025;-72
2021/04/19 01:16:13;;;;;;;17.80;13.07;;;8.20;99.90;;;;;;5025956;28;20025;-72
2021/04/19 01:18:38;;;;;;;15.25;12.02;;;8.10;99.90;;;;;;5029224;28;20026;-72
2021/04/19 01:21:04;;;;;;;18.65;13.88;;;8.20;99.90;;;;;;5026582;28;20030;-71
2021/04/19 01:23:30;;;;;;;17.20;13.43;;;8.00;99.90;;;;;;5033014;28;20117;-74
2021/04/19 01:25:56;;;;;;;18.05;12.65;;;8.00;99.90;;;;;;5025878;28;20117;-73
2021/04/19 01:28:21;;;;;;;22.50;13.85;;;8.00;99.90;;;;;;5025781;28;20110;-71
2021/04/19 01:30:50;;;;;;;16.48;13.38;;;8.00;99.90;;;;;;5017412;28;20045;-73
2021/04/19 01:33:18;;;;;;;20.60;13.75;;;8.00;99.90;;;;;;5034333;28;20022;-73
2021/04/19 01:35:44;;;;;;;16.48;13.52;;;7.80;99.90;;;;;;5021972;28;20097;-72
2021/04/19 01:38:11;;;;;;;16.60;13.77;;;7.70;99.90;;;;;;5028248;28;20095;-73
2021/04/19 01:40:37;;;;;;;20.48;15.55;;;7.60;99.90;;;;;;5021063;28;20049;-72
2021/04/19 01:43:03;;;;;;;16.85;14.70;;;7.90;99.90;;;;;;5032500;28;20033;-73
2021/04/19 01:45:29;;;;;;;17.15;13.63;;;8.00;99.90;;;;;;5026611;28;20354;-72
2021/04/19 01:47:56;;;;;;;16.02;13.02;;;8.00;99.90;;;;;;5038322;28;20029;-72
2021/04/19 01:50:27;;;;;;;15.60;13.95;;;8.00;99.90;;;;;;5038453;28;20034;-72
2021/04/19 01:56:15;;;;;;;16.02;14.27;;;7.80;99.90;;;;;;5048211;28;20071;-72
2021/04/19 01:58:41;;;;;;;18.90;13.05;;;7.80;99.90;;;;;;5038472;28;20033;-71
2021/04/19 02:01:07;;;;;;;17.92;13.93;;;7.70;99.90;;;;;;5051696;28;20051;-72
2021/04/19 02:03:55;;;;;;;17.30;12.88;;;7.70;99.90;;;;;;5040251;28;20033;-72
2021/04/19 02:06:44;;;;;;;17.73;13.20;;;7.80;99.90;;;;;;5029166;28;20467;-73
2021/04/19 02:09:23;;;;;;;18.10;14.23;;;7.90;99.90;;;;;;5048943;23;20388;-75
2021/04/19 02:11:53;;;;;;;16.60;13.50;;;7.90;99.90;;;;;;5019254;28;20026;-75
2021/04/19 02:14:36;;;;;;;15.43;13.25;;;7.80;99.90;;;;;;5027870;28;20032;-74
2021/04/19 02:17:01;;;;;;;15.40;12.35;;;7.70;99.90;;;;;;5026145;28;20103;-76
2021/04/19 02:19:43;;;;;;;19.92;14.13;;;7.60;99.90;;;;;;5032354;28;20053;-76
2021/04/19 02:22:11;;;;;;;17.13;14.52;;;7.50;99.90;;;;;;5031015;28;20139;-76
2021/04/19 02:24:41;;;;;;;14.95;13.27;;;7.40;99.90;;;;;;5028758;28;20564;-75
2021/04/19 02:27:16;;;;;;;16.35;13.73;;;7.40;99.90;;;;;;5035625;28;20091;-75
2021/04/19 02:29:48;;;;;;;19.13;14.82;;;7.40;99.90;;;;;;5035642;28;20509;-75
2021/04/19 02:32:19;;;;;;;20.98;14.50;;;7.40;99.90;;;;;;5027280;28;20033;-76
2021/04/19 02:34:46;;;;;;;14.40;12.90;;;7.40;99.90;;;;;;5031397;28;20480;-76
2021/04/19 02:37:13;;;;;;;19.25;14.63;;;7.50;99.90;;;;;;5032185;28;20104;-76
2021/04/19 02:39:42;;;;;;;20.83;13.85;;;7.40;99.90;;;;;;5027178;28;20460;-76
2021/04/19 02:42:09;;;;;;;19.55;14.85;;;7.60;99.90;;;;;;5032189;28;20018;-76
2021/04/19 02:44:36;;;;;;;21.75;14.77;;;7.60;99.90;;;;;;5029258;28;20115;-76
2021/04/19 02:47:02;;;;;;;17.25;13.88;;;7.70;99.90;;;;;;5023807;28;20059;-76
2021/04/19 02:49:30;;;;;;;16.67;12.95;;;7.80;99.90;;;;;;5036780;28;20112;-76
2021/04/19 02:51:59;;;;;;;16.98;14.15;;;8.00;99.90;;;;;;5033613;28;20052;-76
2021/04/19 02:54:25;;;;;;;20.52;14.45;;;7.90;99.90;;;;;;5032114;28;20025;-76
2021/04/19 02:56:52;;;;;;;20.30;13.77;;;7.90;99.90;;;;;;5032260;28;20377;-76
2021/04/19 02:59:20;;;;;;;21.13;14.52;;;7.90;99.90;;;;;;5023973;28;20481;-77
2021/04/19 03:01:49;;;;;;;19.20;14.48;;;7.90;99.90;;;;;;5028290;28;20071;-77
2021/04/19 03:04:18;;;;;;;16.08;13.38;;;7.80;99.90;;;;;;5025379;28;20037;-74
2021/04/19 03:06:49;;;;;;;21.33;14.90;;;7.60;99.90;;;;;;5026490;28;20105;-75
2021/04/19 03:09:16;;;;;;;18.42;14.52;;;7.60;99.90;;;;;;5030861;28;20037;-75
2021/04/19 03:12:02;;;;;;;16.58;14.77;;;7.50;99.90;;;;;;5026468;28;20384;-76
2021/04/19 03:14:36;;;;;;;16.50;14.00;;;7.50;99.90;;;;;;5026582;28;20036;-76
2021/04/19 03:17:06;;;;;;;21.50;13.93;;;7.50;99.90;;;;;;5024239;28;20481;-75
2021/04/19 03:19:36;;;;;;;19.05;14.80;;;7.50;99.90;;;;;;5031551;28;20107;-77
2021/04/19 03:22:02;;;;;;;17.40;13.23;;;7.50;99.90;;;;;;5026906;28;20033;-76
2021/04/19 03:24:30;;;;;;;23.00;14.32;;;7.50;99.90;;;;;;5031112;28;20029;-76
2021/04/19 03:26:58;;;;;;;15.90;14.18;;;7.50;99.90;;;;;;5031464;28;20419;-76
2021/04/19 03:29:26;;;;;;;20.05;13.48;;;7.50;99.90;;;;;;5014447;28;20045;-76
2021/04/19 03:31:55;;;;;;;19.35;14.02;;;7.50;99.90;;;;;;5027685;28;20030;-77
2021/04/19 03:34:28;;;;;;;18.08;15.07;;;7.50;99.90;;;;;;5027496;28;20530;-76
2021/04/19 03:36:58;;;;;;;17.92;13.85;;;7.60;99.90;;;;;;5031120;28;20476;-76
2021/04/19 03:39:25;;;;;;;19.75;14.95;;;7.60;99.90;;;;;;5031173;28;20480;-76
2021/04/19 03:41:54;;;;;;;15.05;13.45;;;7.60;99.90;;;;;;5031147;28;20037;-77
2021/04/19 03:44:25;;;;;;;19.02;14.45;;;7.70;99.90;;;;;;5026404;28;20029;-76
2021/04/19 03:46:52;;;;;;;18.52;14.35;;;7.70;99.90;;;;;;5030328;28;20082;-76
2021/04/19 03:49:27;;;;;;;18.08;14.32;;;8.00;99.90;;;;;;5030148;28;20044;-76
2021/04/19 03:51:56;;;;;;;17.98;14.45;;;8.10;99.90;;;;;;5024091;28;20491;-76
2021/04/19 03:54:26;;;;;;;17.15;14.18;;;8.10;99.90;;;;;;5025699;28;20396;-76
2021/04/19 03:56:53;;;;;;;17.90;14.25;;;8.00;99.90;;;;;;5028329;28;20435;-76
2021/04/19 03:59:20;;;;;;;16.25;14.43;;;8.00;99.90;;;;;;5007583;28;20037;-76
2021/04/19 04:01:47;;;;;;;16.42;14.23;;;7.90;99.90;;;;;;5047648;28;20026;-75
2021/04/19 04:04:14;;;;;;;18.98;13.80;;;8.00;99.90;;;;;;5053003;28;20030;-75
2021/04/19 04:06:43;;;;;;;16.02;14.23;;;8.10;99.90;;;;;;5055490;28;20025;-76
2021/04/19 04:09:09;;;;;;;17.48;13.57;;;8.10;99.90;;;;;;5056289;28;20014;-77
2021/04/19 04:11:36;;;;;;;18.27;14.55;;;7.90;99.90;;;;;;5055109;28;20044;-76
2021/04/19 04:14:03;;;;;;;17.35;13.27;;;7.80;99.90;;;;;;5041110;28;20067;-76
2021/04/19 04:16:29;;;;;;;20.27;14.85;;;7.80;99.90;;;;;;5040672;28;20064;-75
2021/04/19 04:18:54;;;;;;;23.83;14.38;;;7.90;99.90;;;;;;5040458;28;20449;-76
2021/04/19 04:21:20;;;;;;;19.35;14.75;;;7.90;99.90;;;;;;5031887;28;20041;-75
2021/04/19 04:23:46;;;;;;;18.50;13.80;;;7.80;99.90;;;;;;5043388;28;20073;-76
2021/04/19 04:26:12;;;;;;;17.33;14.27;;;7.90;99.90;;;;;;5031917;28;20439;-75
2021/04/19 04:28:38;;;;;;;24.85;14.02;;;7.90;99.90;;;;;;5031267;28;20408;-76
2021/04/19 04:31:04;;;;;;;17.92;14.57;;;8.00;99.90;;;;;;5029089;28;20061;-76
2021/04/19 04:33:30;;;;;;;16.25;14.43;;;7.80;99.90;;;;;;5032274;28;20057;-78
2021/04/19 04:35:55;;;;;;;17.10;13.35;;;7.90;99.90;;;;;;5031044;28;20419;-76
2021/04/19 04:38:21;;;;;;;18.67;15.50;;;7.90;99.90;;;;;;5029334;28;20044;-76
2021/04/19 04:40:46;;;;;;;17.35;14.50;;;8.00;99.90;;;;;;5028827;28;20388;-76
2021/04/19 04:43:19;;;;;;;17.88;13.90;;;7.80;99.90;;;;;;5026492;28;20021;-76
2021/04/19 04:45:46;;;;;;;23.25;14.32;;;8.00;99.90;;;;;;5016298;28;20034;-76
2021/04/19 04:48:24;;;;;;;17.65;14.73;;;8.10;99.90;;;;;;5030369;28;20024;-76
2021/04/19 04:50:59;;;;;;;21.10;15.20;;;8.00;99.90;;;;;;5030499;28;20029;-76
2021/04/19 04:53:27;;;;;;;15.90;14.30;;;8.10;99.90;;;;;;5028456;28;20033;-77
2021/04/19 04:55:55;;;;;;;16.85;13.63;;;8.10;99.90;;;;;;5023495;28;20558;-76
2021/04/19 04:58:22;;;;;;;23.02;15.57;;;8.10;99.90;;;;;;5028072;28;20488;-76
2021/04/19 05:00:49;;;;;;;16.88;13.18;;;8.00;99.90;;;;;;5033086;28;20053;-77
2021/04/19 05:03:15;;;;;;;19.25;14.00;;;8.00;99.90;;;;;;5028378;28;20041;-76
2021/04/19 05:05:42;;;;;;;17.23;13.80;;;8.00;99.90;;;;;;5023203;28;20109;-76
2021/04/19 05:08:11;;;;;;;20.38;15.63;;;7.80;99.90;;;;;;5033951;28;20124;-76
2021/04/19 05:10:38;;;;;;;20.52;13.85;;;7.90;99.90;;;;;;5021374;28;20408;-76
2021/04/19 05:13:12;;;;;;;17.67;14.05;;;8.00;99.90;;;;;;5027192;28;20396;-76
2021/04/19 05:15:43;;;;;;;19.15;15.18;;;7.90;99.90;;;;;;5026262;28;20107;-76
2021/04/19 05:18:11;;;;;;;20.77;13.80;;;8.00;99.90;;;;;;5032187;28;20432;-76
2021/04/19 05:20:37;;;;;;;18.08;13.43;;;7.80;99.90;;;;;;5029232;28;20068;-77
2021/04/19 05:23:02;;;;;;;20.83;14.52;;;7.80;99.90;;;;;;5024845;28;20045;-76
2021/04/19 05:25:28;;;;;;;17.48;14.68;;;7.70;99.90;;;;;;5028276;28;20021;-77
2021/04/19 05:27:54;;;;;;;22.38;15.23;;;7.60;99.90;;;;;;5034056;28;20515;-76
2021/04/19 05:30:20;;;;;;;18.63;15.73;;;7.40;99.90;;;;;;5026332;28;20056;-76
2021/04/19 05:32:46;;;;;;;19.17;15.15;;;7.30;99.90;;;;;;5032137;28;20034;-76
2021/04/19 05:35:11;;;;;;;20.55;13.82;;;7.30;99.90;;;;;;5028645;28;20030;-76
2021/04/19 05:37:37;;;;;;;23.25;14.25;;;7.20;99.90;;;;;;5025779;28;20076;-76
2021/04/19 05:40:04;;;;;;;19.13;13.63;;;7.40;99.90;;;;;;5030250;28;20108;-75
2021/04/19 05:42:29;;;;;;;24.65;14.73;;;7.60;99.90;;;;;;5036643;28;20038;-75
2021/04/19 05:44:55;;;;;;;18.50;15.35;;;7.50;99.90;;;;;;5032761;28;20024;-76
2021/04/19 05:47:20;;;;;;;47.40;17.13;;;7.50;99.90;;;;;;5035228;28;20055;-76
2021/04/19 05:49:46;;;;;;;19.20;14.20;;;7.40;99.90;;;;;;5034293;28;20083;-76
2021/04/19 05:52:12;;;;;;;23.42;15.90;;;7.30;99.90;;;;;;5033765;28;20100;-76
2021/04/19 05:54:41;;;;;;;19.95;15.93;;;7.40;99.90;;;;;;5031454;28;20029;-76
2021/04/19 05:57:20;;;;;;;20.20;14.88;;;7.20;99.90;;;;;;5031440;28;20052;-76
2021/04/19 05:59:57;;;;;;;16.80;14.95;;;7.20;99.90;;;;;;5024999;28;20030;-75
2021/04/19 06:02:37;;;;;;;18.92;16.40;;;7.10;99.90;;;;;;5033470;28;20444;-75
2021/04/19 06:05:07;;;;;;;21.00;15.55;;;7.30;99.90;;;;;;5025983;28;20053;-77
2021/04/19 06:07:44;;;;;;;19.20;14.75;;;7.30;99.90;;;;;;5032503;28;20034;-76
2021/04/19 06:10:16;;;;;;;25.45;15.88;;;7.30;99.90;;;;;;5029086;28;20189;-75
2021/04/19 06:12:48;;;;;;;22.73;15.20;;;7.40;99.90;;;;;;5029695;28;20022;-76
2021/04/19 06:15:15;;;;;;;22.55;16.13;;;7.50;99.90;;;;;;5027158;28;20103;-77
2021/04/19 06:17:47;;;;;;;26.42;16.88;;;7.40;99.90;;;;;;5029527;28;20048;-76
2021/04/19 06:20:18;;;;;;;26.55;15.98;;;7.20;99.90;;;;;;5030611;28;20140;-75
2021/04/19 06:22:44;;;;;;;22.65;15.98;;;7.30;99.90;;;;;;5031065;28;20104;-75
2021/04/19 06:25:12;;;;;;;23.33;16.20;;;7.20;99.90;;;;;;5027878;28;20108;-76
2021/04/19 06:27:41;;;;;;;25.55;16.88;;;7.10;99.90;;;;;;5025597;28;20184;-76
2021/04/19 06:30:21;;;;;;;24.05;16.08;;;7.10;99.90;;;;;;5020210;28;20527;-77
2021/04/19 06:32:50;;;;;;;22.63;16.33;;;7.20;99.90;;;;;;5023530;28;20370;-79
2021/04/19 06:35:17;;;;;;;25.45;16.58;;;7.20;99.90;;;;;;5023978;28;20034;-77
2021/04/19 06:37:55;;;;;;;25.85;16.45;;;7.20;99.90;;;;;;5033537;28;20029;-76
2021/04/19 06:40:22;;;;;;;22.88;17.17;;;7.30;99.90;;;;;;5029833;28;20392;-76
2021/04/19 06:42:48;;;;;;;28.23;16.75;;;7.30;99.90;;;;;;5032850;28;20021;-77
2021/04/19 06:45:15;;;;;;;26.02;15.95;;;7.30;99.90;;;;;;5032962;28;20032;-77
2021/04/19 06:47:42;;;;;;;20.83;16.25;;;7.60;99.90;;;;;;5030879;28;20021;-77
2021/04/19 06:50:09;;;;;;;20.25;16.05;;;7.70;99.90;;;;;;5025281;28;20163;-76
2021/04/19 06:52:35;;;;;;;21.60;16.05;;;7.40;99.90;;;;;;5029171;28;20041;-75
2021/04/19 06:55:01;;;;;;;18.48;16.58;;;7.20;99.90;;;;;;5024637;28;20021;-76
2021/04/19 06:57:33;;;;;;;22.30;15.25;;;7.10;1.00;;;;;;5022293;28;20033;-77
2021/04/19 07:00:01;;;;;;;22.00;16.73;;;7.30;1.00;;;;;;5018442;28;20483;-75
2021/04/19 07:02:28;;;;;;;21.80;17.17;;;7.30;1.00;;;;;;5035758;28;20061;-76
2021/04/19 07:04:54;;;;;;;20.25;15.85;;;7.40;1.00;;;;;;5037767;28;20060;-76
2021/04/19 07:07:28;;;;;;;24.10;14.93;;;7.60;99.90;;;;;;5039943;28;20042;-76
2021/04/19 07:09:57;;;;;;;17.23;15.35;;;7.70;99.90;;;;;;5042190;28;20026;-75
2021/04/19 07:12:25;;;;;;;18.60;15.55;;;7.80;99.90;;;;;;5042595;28;20022;-76
2021/04/19 07:14:54;;;;;;;17.88;15.98;;;7.60;99.90;;;;;;5039255;28;20017;-75
2021/04/19 07:17:20;;;;;;;20.95;16.38;;;7.70;99.90;;;;;;5041757;28;20095;-76
2021/04/19 07:19:46;;;;;;;25.42;17.33;;;7.50;99.90;;;;;;5023273;28;20422;-76
2021/04/19 07:22:14;;;;;;;19.40;15.40;;;7.30;1.00;;;;;;5022832;28;20018;-77
2021/04/19 07:24:40;;;;;;;29.13;17.15;;;7.20;1.00;;;;;;5030627;28;20381;-76
2021/04/19 07:27:09;;;;;;;20.67;16.58;;;7.30;1.00;;;;;;5027095;28;20064;-77
2021/04/19 07:29:35;;;;;;;24.05;17.17;;;7.40;1.00;;;;;;5029097;28;20084;-77
2021/04/19 07:32:00;;;;;;;26.80;17.75;;;7.20;1.00;;;;;;5026640;28;20033;-75
2021/04/19 07:34:31;;;;;;;22.65;17.38;;;7.10;1.00;;;;;;5028103;28;20109;-76
2021/04/19 07:37:02;;;;;;;25.60;19.83;;;7.10;1.00;;;;;;5032023;28;20068;-75
2021/04/19 07:39:30;;;;;;;20.52;17.40;;;7.10;1.00;;;;;;5024180;28;20514;-75
2021/04/19 07:42:01;;;;;;;21.33;17.17;;;7.20;1.00;;;;;;5021729;28;20025;-76
2021/04/19 07:44:43;;;;;;;26.35;16.88;;;7.30;1.00;;;;;;5029829;28;20029;-77
2021/04/19 07:47:24;;;;;;;22.52;16.73;;;7.20;1.00;;;;;;5037773;28;20531;-76
2021/04/19 07:50:11;;;;;;;19.40;16.67;;;7.20;1.00;;;;;;5044094;28;20022;-76
2021/04/19 07:52:55;;;;;;;25.05;18.42;;;7.20;1.00;;;;;;5039912;28;20025;-75
2021/04/19 07:55:27;;;;;;;25.08;17.88;;;7.30;1.00;;;;;;5026218;28;20476;-76
2021/04/19 07:57:53;;;;;;;23.00;16.55;;;7.70;1.00;;;;;;5027904;28;20029;-77
2021/04/19 08:00:33;;;;;;;18.33;16.42;;;7.90;99.90;;;;;;5024038;28;20397;-76
2021/04/19 08:02:59;;;;;;;22.83;16.92;;;7.70;1.00;;;;;;5022289;28;20033;-77
2021/04/19 08:05:36;;;;;;;19.23;17.23;;;7.50;1.00;;;;;;5015984;28;20022;-76
2021/04/19 08:08:02;;;;;;;25.83;17.90;;;7.40;1.00;;;;;;5049411;23;20201;-73
2021/04/19 08:10:28;;;;;;;25.35;18.35;;;7.50;1.00;;;;;;5010640;28;20059;-71
2021/04/19 08:13:02;;;;;;;22.30;16.65;;;7.60;1.00;;;;;;5013541;28;20105;-74
2021/04/19 08:15:28;;;;;;;21.67;17.25;;;7.70;1.00;;;;;;5010287;28;20041;-73
2021/04/19 08:18:05;;;;;;;21.08;17.40;;;7.80;1.00;;;;;;5008578;28;20030;-73
2021/04/19 08:20:31;;;;;;;19.52;16.80;;;7.80;1.00;;;;;;4986084;28;20030;-73
2021/04/19 08:23:12;;;;;;;21.42;17.20;;;7.80;1.00;;;;;;4996960;28;20022;-73
2021/04/19 08:25:41;;;;;;;20.88;16.40;;;7.80;1.00;;;;;;4997860;28;20341;-73
2021/04/19 08:28:14;;;;;;;21.42;16.58;;;7.90;1.00;;;;;;4993876;28;20031;-75
2021/04/19 08:30:42;;;;;;;20.48;17.08;;;7.90;1.00;;;;;;4998928;28;20030;-72
2021/04/19 08:33:10;;;;;;;25.13;16.67;;;8.20;99.90;;;;;;5002301;28;20555;-74
2021/04/19 08:35:36;;;;;;;21.95;17.60;;;7.90;1.00;;;;;;5005518;28;20034;-72
2021/04/19 08:38:04;;;;;;;21.77;17.20;;;8.00;1.00;;;;;;5011781;28;20033;-72
2021/04/19 08:40:32;;;;;;;22.38;17.17;;;8.00;1.00;;;;;;5006509;28;20030;-72
2021/04/19 08:42:58;;;;;;;18.20;16.17;;;8.20;1.00;;;;;;5001562;28;20030;-72
2021/04/19 08:45:27;;;;;;;24.17;17.75;;;8.50;99.90;;;;;;5000225;28;20022;-72
2021/04/19 08:47:54;;;;;;;19.63;17.55;;;8.70;1.00;;;;;;5004264;28;20030;-71
2021/04/19 08:50:24;;;;;;;24.33;19.73;;;8.60;99.90;;;;;;4997236;28;20026;-73
2021/04/19 08:52:52;;;;;;;20.58;17.08;;;8.50;1.00;;;;;;4998991;28;20026;-72
2021/04/19 08:55:18;;;;;;;21.40;18.23;;;8.70;99.90;;;;;;4997688;28;20096;-72
2021/04/19 08:57:44;;;;;;;22.52;16.50;;;8.70;1.00;;;;;;5000607;28;20077;-73
2021/04/19 09:00:18;;;;;;;22.10;18.17;;;8.40;1.00;;;;;;4999117;28;20030;-73
2021/04/19 09:02:44;;;;;;;22.45;18.30;;;8.30;1.00;;;;;;4997515;28;20014;-73
2021/04/19 09:05:15;;;;;;;23.80;19.52;;;8.10;1.00;;;;;;4997558;28;20022;-74
2021/04/19 09:07:45;;;;;;;22.67;19.27;;;7.90;1.00;;;;;;4996521;28;20394;-74
2021/04/19 09:10:14;;;;;;;25.77;19.40;;;7.90;1.00;;;;;;4984592;28;20027;-73
2021/04/19 09:12:40;;;;;;;24.58;19.17;;;7.80;1.00;;;;;;4991483;28;20033;-73
2021/04/19 09:15:28;;;;;;;25.52;19.90;;;7.90;1.00;;;;;;5000667;28;20025;-72
2021/04/19 09:18:21;;;;;;;26.42;20.05;;;7.90;1.00;;;;;;5015304;28;20018;-73
2021/04/19 09:20:54;;;;;;;21.75;17.50;;;8.00;1.00;;;;;;4994201;28;20034;-71
2021/04/19 09:23:24;;;;;;;23.63;17.95;;;8.30;1.00;;;;;;4999566;28;20052;-71
2021/04/19 09:25:51;;;;;;;25.40;18.10;;;8.50;1.00;;;;;;4999299;28;20026;-73
2021/04/19 09:28:38;;;;;;;22.65;19.13;;;8.50;1.00;;;;;;5002694;28;20048;-73
2021/04/19 09:31:04;;;;;;;22.60;18.30;;;8.50;1.00;;;;;;4997031;28;20040;-74
2021/04/19 09:33:30;;;;;;;26.05;18.65;;;8.50;1.00;;;;;;4998757;28;20118;-75
2021/04/19 09:35:55;;;;;;;23.73;18.40;;;8.80;1.00;;;;;;5014924;28;20045;-74
2021/04/19 09:38:33;;;;;;;23.60;18.98;;;8.90;1.00;;;;;;5002558;28;20100;-74
2021/04/19 09:41:13;;;;;;;20.00;17.10;;;8.80;99.90;;;;;;5003424;28;20038;-74
2021/04/19 09:43:49;;;;;;;22.48;18.23;;;8.80;1.00;;;;;;4997581;28;20022;-73
2021/04/19 09:46:17;;;;;;;22.73;18.42;;;9.10;1.00;;;;;;4999556;28;20575;-74
2021/04/19 09:48:52;;;;;;;22.85;19.35;;;9.00;1.00;;;;;;4997306;28;20034;-73
2021/04/19 09:51:27;;;;;;;23.73;18.38;;;8.90;1.00;;;;;;4999745;28;20026;-73
2021/04/19 09:53:59;;;;;;;25.13;17.67;;;8.80;1.00;;;;;;5000790;28;20057;-74
2021/04/19 09:56:29;;;;;;;19.20;17.20;;;8.90;1.00;;;;;;5001839;28;20089;-73
2021/04/19 09:58:56;;;;;;;23.13;16.77;;;9.40;99.90;;;;;;5001083;28;20031;-73
2021/04/19 10:01:24;;;;;;;21.65;17.10;;;9.10;1.00;;;;;;5002662;28;20401;-73
2021/04/19 10:03:51;;;;;;;24.13;17.27;;;9.40;1.00;;;;;;4988959;28;20022;-73
2021/04/19 10:06:36;;;;;;;21.27;18.63;;;9.50;99.90;;;;;;4996335;28;20029;-75
2021/04/19 10:09:08;;;;;;;24.92;17.20;;;9.80;99.90;;;;;;4995591;28;20461;-74
2021/04/19 10:11:35;;;;;;;23.00;17.63;;;9.90;99.90;;;;;;4993369;28;20068;-75
2021/04/19 10:14:13;;;;;;;23.83;18.98;;;9.50;99.90;;;;;;5004187;28;20242;-74
2021/04/19 10:16:49;;;;;;;19.73;17.40;;;9.80;99.90;;;;;;5011356;28;20072;-74
2021/04/19 10:19:26;;;;;;;26.83;18.20;;;9.80;99.90;;;;;;5009647;28;20447;-74
2021/04/19 10:22:08;;;;;;;21.63;16.63;;;9.90;99.90;;;;;;4990782;28;20346;-71
2021/04/19 10:24:56;;;;;;;21.42;18.10;;;9.50;99.90;;;;;;4993897;28;20026;-74
2021/04/19 10:27:27;;;;;;;21.58;18.02;;;9.30;1.00;;;;;;5006116;28;20033;-74
2021/04/19 10:29:53;;;;;;;25.95;18.00;;;9.20;1.00;;;;;;5004439;28;20025;-73
2021/04/19 10:32:31;;;;;;;24.33;16.70;;;9.30;1.00;;;;;;4996861;28;20085;-74
2021/04/19 10:34:57;;;;;;;23.85;17.73;;;9.30;1.00;;;;;;4993293;28;20058;-75
2021/04/19 10:37:23;;;;;;;23.40;18.08;;;9.30;1.00;;;;;;5007786;28;20041;-73
2021/04/19 10:39:48;;;;;;;21.55;16.80;;;9.40;1.00;;;;;;5013354;28;20034;-73
2021/04/19 10:42:22;;;;;;;24.42;17.08;;;9.40;1.00;;;;;;4997346;28;20023;-73
2021/04/19 10:44:52;;;;;;;24.15;18.17;;;9.50;1.00;;;;;;4999297;28;20061;-75
2021/04/19 10:47:29;;;;;;;22.17;18.40;;;9.70;1.00;;;;;;5007888;28;20031;-74
2021/04/19 10:49:55;;;;;;;20.25;18.20;;;9.60;1.00;;;;;;5026880;28;20090;-72
2021/04/19 10:52:20;;;;;;;24.10;19.58;;;9.60;1.00;;;;;;5017086;28;20026;-73
2021/04/19 10:54:46;;;;;;;21.58;18.58;;;9.70;1.00;;;;;;4993041;28;20513;-74
2021/04/19 10:57:26;;;;;;;19.45;17.10;;;9.70;1.00;;;;;;5013823;28;20014;-73
2021/04/19 10:59:56;;;;;;;20.60;16.73;;;9.70;99.90;;;;;;5018069;28;20025;-73
2021/04/19 11:02:24;;;;;;;21.63;17.55;;;9.70;99.90;;;;;;5032653;28;20057;-73
2021/04/19 11:04:51;;;;;;;23.50;17.92;;;9.60;99.90;;;;;;5013960;28;20030;-73
2021/04/19 11:07:22;;;;;;;21.27;18.58;;;9.60;1.00;;;;;;4996634;28;20389;-74
2021/04/19 11:10:13;;;;;;;23.35;17.73;;;9.80;99.90;;;;;;5008021;28;20041;-74
2021/04/19 11:12:39;;;;;;;21.77;19.38;;;10.10;99.90;;;;;;5001934;28;20042;-72
2021/04/19 11:15:12;;;;;;;26.88;18.58;;;10.20;99.90;;;;;;5005571;28;20400;-74
2021/04/19 11:17:38;;;;;;;23.33;18.50;;;10.30;99.90;;;;;;5004757;28;20042;-73
2021/04/19 11:20:22;;;;;;;23.58;19.08;;;10.10;99.90;;;;;;4994851;28;20030;-73
2021/04/19 11:22:49;;;;;;;21.58;17.48;;;10.10;99.90;;;;;;4996628;28;20026;-72
2021/04/19 11:25:28;;;;;;;20.55;17.23;;;10.30;99.90;;;;;;5007905;28;20050;-73
2021/04/19 11:28:19;;;;;;;22.10;17.52;;;10.50;99.90;;;;;;4993826;28;20019;-73
2021/04/19 11:30:46;;;;;;;20.83;18.60;;;10.30;99.90;;;;;;5004617;28;20033;-72
2021/04/19 11:33:25;;;;;;;20.77;17.70;;;10.40;99.90;;;;;;5007175;28;20105;-74
2021/04/19 11:35:59;;;;;;;19.95;17.55;;;10.50;99.90;;;;;;4997741;28;20053;-72
2021/04/19 11:38:25;;;;;;;19.20;17.13;;;10.50;99.90;;;;;;5006485;28;20127;-72
2021/04/19 11:40:58;;;;;;;20.20;16.60;;;10.50;99.90;;;;;;4999050;28;20030;-73
2021/04/19 11:43:28;;;;;;;17.48;15.50;;;10.60;99.90;;;;;;5007738;28;20026;-73
2021/04/19 11:45:58;;;;;;;15.73;14.02;;;10.60;99.90;;;;;;5007281;28;20022;-73
2021/04/19 11:48:24;;;;;;;18.95;16.33;;;10.70;99.90;;;;;;4994967;28;20022;-73
2021/04/19 11:50:50;;;;;;;17.00;14.40;;;10.60;99.90;;;;;;5007841;28;20026;-72
2021/04/19 11:53:26;;;;;;;18.27;14.20;;;10.50;99.90;;;;;;5007921;28;20424;-74
2021/04/19 11:55:53;;;;;;;16.52;14.65;;;10.50;99.90;;;;;;5004661;28;20027;-73
2021/04/19 11:58:19;;;;;;;14.65;13.18;;;10.50;99.90;;;;;;4999798;28;20397;-72
2021/04/19 12:00:48;;;;;;;14.85;13.35;;;10.50;99.90;;;;;;4989134;28;20037;-72
2021/04/19 12:03:13;;;;;;;16.02;14.13;;;10.50;99.90;;;;;;5001604;28;20106;-71
2021/04/19 12:05:40;;;;;;;17.20;13.77;;;10.60;99.90;;;;;;5009064;28;20033;-72
2021/04/19 12:08:05;;;;;;;16.48;14.63;;;10.60;99.90;;;;;;5008006;28;20034;-73
2021/04/19 12:10:32;;;;;;;16.20;13.60;;;10.40;99.90;;;;;;5014812;28;20037;-72
2021/04/19 12:12:57;;;;;;;15.73;14.00;;;10.50;99.90;;;;;;4997498;28;20027;-72
2021/04/19 12:15:24;;;;;;;15.57;13.80;;;10.30;99.90;;;;;;5005222;28;20251;-72
2021/04/19 12:17:50;;;;;;;21.08;15.40;;;10.40;99.90;;;;;;5008034;28;20022;-73
2021/04/19 12:20:15;;;;;;;16.92;15.15;;;10.40;99.90;;;;;;5011931;28;20042;-72
2021/04/19 12:22:41;;;;;;;15.60;13.88;;;10.30;99.90;;;;;;5007143;28;20031;-74
2021/04/19 12:25:07;;;;;;;16.27;14.57;;;10.30;99.90;;;;;;4997219;28;20030;-73
2021/04/19 12:27:32;;;;;;;16.95;13.88;;;10.40;99.90;;;;;;4996702;28;20046;-73
2021/04/19 12:29:58;;;;;;;19.40;14.65;;;10.50;99.90;;;;;;5000824;28;20073;-74
2021/04/19 12:32:23;;;;;;;15.05;13.45;;;10.60;99.90;;;;;;5006081;28;20049;-72
2021/04/19 12:34:49;;;;;;;14.50;13.00;;;10.70;99.90;;;;;;5007858;28;20551;-78
2021/04/19 12:37:16;;;;;;;15.48;13.00;;;10.70;99.90;;;;;;5031469;28;20041;-83
2021/04/19 12:39:42;;;;;;;12.30;11.15;;;10.80;99.90;;;;;;5008018;28;20041;-80
2021/04/19 12:42:07;;;;;;;12.73;10.93;;;10.80;99.90;;;;;;5026021;28;20085;-80
2021/04/19 12:44:34;;;;;;;13.57;11.93;;;11.00;99.90;;;;;;5031094;28;20037;-82
2021/04/19 12:46:59;;;;;;;13.52;12.13;;;11.10;99.90;;;;;;4996718;28;20042;-77
2021/04/19 12:49:25;;;;;;;13.60;11.40;;;11.40;99.90;;;;;;5009245;28;20089;-76
2021/04/19 12:51:51;;;;;;;14.52;12.73;;;11.30;99.90;;;;;;5024263;28;20038;-77